createdAt,value
2023-04-06T00:00:52.461Z,97207.28
2023-04-06T00:03:21.376Z,97203.31
2023-04-06T00:05:50.737Z,97208.66
2023-04-06T00:08:19.350Z,97204.34
2023-04-06T00:10:47.678Z,97201.28
2023-04-06T00:13:16.241Z,97203.63
2023-04-06T00:15:44.572Z,97198.75
2023-04-06T00:18:14.337Z,97197.34
2023-04-06T00:20:42.755Z,97205.09
2023-04-06T00:23:11.334Z,97198.56
2023-04-06T00:25:39.677Z,97199.56
2023-04-06T00:28:08.059Z,97202.28
2023-04-06T00:30:36.402Z,97203.84
2023-04-06T00:33:05.000Z,97204.38
2023-04-06T00:35:34.894Z,97199.16
2023-04-06T00:38:03.486Z,97199.88
2023-04-06T00:40:32.164Z,97205.72
2023-04-06T00:43:00.789Z,97206.06
2023-04-06T00:45:30.543Z,97203.28
2023-04-06T00:47:59.826Z,97206.53
2023-04-06T00:50:28.618Z,97203.53
2023-04-06T00:52:58.733Z,97197.00
2023-04-06T00:55:29.484Z,97203.53
2023-04-06T00:58:01.751Z,97198.16
2023-04-06T01:00:34.449Z,97193.84
2023-04-06T01:03:06.957Z,97197.00
2023-04-06T01:05:42.045Z,97190.97
2023-04-06T01:08:20.035Z,97190.19
2023-04-06T01:10:48.846Z,97192.88
2023-04-06T01:13:29.968Z,97192.53
2023-04-06T01:16:03.243Z,97200.00
2023-04-06T01:18:48.400Z,97189.06
2023-04-06T01:21:31.085Z,97193.72
2023-04-06T01:24:15.990Z,97187.56
2023-04-06T01:26:58.551Z,97190.13
2023-04-06T01:29:30.968Z,97192.34
2023-04-06T01:32:01.054Z,97187.31
2023-04-06T01:34:31.266Z,97174.63
2023-04-06T01:37:04.420Z,97171.38
2023-04-06T01:39:35.008Z,97170.59
2023-04-06T01:42:06.378Z,97166.38
2023-04-06T01:44:38.129Z,97164.31
2023-04-06T01:47:11.708Z,97165.47
2023-04-06T01:49:40.624Z,97164.56
2023-04-06T01:52:09.945Z,97170.97
2023-04-06T01:54:43.240Z,97172.41
2023-04-06T01:57:16.573Z,97169.59
2023-04-06T02:00:10.048Z,97165.13
2023-04-06T02:02:50.451Z,97170.50
2023-04-06T02:05:23.983Z,97167.44
2023-04-06T02:07:54.202Z,97173.81
2023-04-06T02:10:32.279Z,97175.84
2023-04-06T02:13:04.624Z,97174.59
2023-04-06T02:15:33.680Z,97175.78
2023-04-06T02:18:02.257Z,97168.56
2023-04-06T02:20:30.892Z,97166.81
2023-04-06T02:23:01.076Z,97165.28
2023-04-06T02:25:29.876Z,97169.13
2023-04-06T02:27:59.595Z,97169.69
2023-04-06T02:30:33.681Z,97162.84
2023-04-06T02:33:02.918Z,97166.06
2023-04-06T02:35:37.736Z,97166.22
2023-04-06T02:38:06.549Z,97164.34
2023-04-06T02:40:34.923Z,97164.56
2023-04-06T02:43:14.952Z,97158.88
2023-04-06T02:45:43.618Z,97161.19
2023-04-06T02:48:13.299Z,97163.16
2023-04-06T02:50:42.106Z,97157.09
2023-04-06T02:53:10.621Z,97157.00
2023-04-06T02:55:41.030Z,97155.38
2023-04-06T02:58:09.880Z,97157.72
2023-04-06T03:00:49.958Z,97153.88
2023-04-06T03:03:18.568Z,97162.47
2023-04-06T03:05:48.661Z,97158.50
2023-04-06T03:08:20.069Z,97159.88
2023-04-06T03:10:48.587Z,97162.13
2023-04-06T03:13:19.113Z,97161.47
2023-04-06T03:15:52.491Z,97160.38
2023-04-06T03:18:25.436Z,97155.63
2023-04-06T03:20:55.983Z,97170.22
2023-04-06T03:23:29.727Z,97155.88
2023-04-06T03:26:01.574Z,97159.16
2023-04-06T03:28:29.905Z,97164.75
2023-04-06T03:31:03.048Z,97161.50
2023-04-06T03:33:50.166Z,97159.38
2023-04-06T03:36:24.479Z,97162.78
2023-04-06T03:38:54.491Z,97168.72
2023-04-06T03:41:23.099Z,97161.84
2023-04-06T03:44:01.885Z,97170.19
2023-04-06T03:46:31.828Z,97175.66
2023-04-06T03:49:01.597Z,97178.34
2023-04-06T03:51:30.991Z,97181.13
2023-04-06T03:53:59.681Z,97178.91
2023-04-06T03:56:28.025Z,97176.47
2023-04-06T03:58:56.454Z,97177.75
2023-04-06T04:01:25.012Z,97178.56
2023-04-06T04:03:55.499Z,97176.84
2023-04-06T04:06:24.311Z,97178.56
2023-04-06T04:08:52.718Z,97188.47
2023-04-06T04:11:21.067Z,97189.31
2023-04-06T04:13:55.726Z,97183.84
2023-04-06T04:16:24.281Z,97187.75
2023-04-06T04:18:55.547Z,97191.13
2023-04-06T04:21:26.843Z,97190.47
2023-04-06T04:23:55.582Z,97191.13
2023-04-06T04:26:24.167Z,97189.47
2023-04-06T04:28:52.836Z,97191.56
2023-04-06T04:31:23.347Z,97193.78
2023-04-06T04:33:57.764Z,97194.78
2023-04-06T04:36:32.687Z,97191.53
2023-04-06T04:39:04.443Z,97197.81
2023-04-06T04:41:38.474Z,97189.94
2023-04-06T04:44:10.380Z,97196.81
2023-04-06T04:46:38.889Z,97194.47
2023-04-06T04:49:10.021Z,97193.16
2023-04-06T04:51:38.764Z,97189.16
2023-04-06T04:54:13.924Z,97192.91
2023-04-06T04:56:43.779Z,97194.84
2023-04-06T04:59:22.706Z,97194.25
2023-04-06T05:01:58.341Z,97197.75
2023-04-06T05:04:41.186Z,97199.50
2023-04-06T05:07:14.104Z,97197.91
2023-04-06T05:09:43.340Z,97191.22
2023-04-06T05:12:12.862Z,97203.19
2023-04-06T05:14:52.073Z,97208.94
2023-04-06T05:17:22.570Z,97206.59
2023-04-06T05:19:53.426Z,97201.59
2023-04-06T05:22:26.326Z,97189.53
2023-04-06T05:25:09.774Z,97192.31
2023-04-06T05:27:40.647Z,97192.44
2023-04-06T05:30:19.244Z,97203.50
2023-04-06T05:32:50.751Z,97204.19
2023-04-06T05:35:21.275Z,97204.75
2023-04-06T05:37:53.270Z,97206.97
2023-04-06T05:40:25.866Z,97205.78
2023-04-06T05:42:54.613Z,97205.13
2023-04-06T05:45:23.090Z,97211.38
2023-04-06T05:47:56.674Z,97205.44
2023-04-06T05:50:30.721Z,97199.97
2023-04-06T05:53:00.038Z,97193.16
2023-04-06T05:55:33.495Z,97199.81
2023-04-06T05:58:19.271Z,97203.22
2023-04-06T06:00:49.349Z,97211.66
2023-04-06T06:03:19.160Z,97208.63
2023-04-06T06:05:54.537Z,97208.19
2023-04-06T06:08:31.807Z,97210.41
2023-04-06T06:11:04.714Z,97214.09
2023-04-06T06:13:33.165Z,97213.38
2023-04-06T06:16:06.155Z,97210.25
2023-04-06T06:18:37.852Z,97215.63
2023-04-06T06:21:08.245Z,97207.44
2023-04-06T06:23:37.172Z,97210.72
2023-04-06T06:26:06.022Z,97204.44
2023-04-06T06:28:34.806Z,97216.78
2023-04-06T06:31:03.409Z,97217.72
2023-04-06T06:33:32.688Z,97210.72
2023-04-06T06:36:01.788Z,97220.41
2023-04-06T06:38:33.555Z,97218.47
2023-04-06T06:41:02.015Z,97218.47
2023-04-06T06:43:33.792Z,97218.97
2023-04-06T06:46:07.039Z,97223.13
2023-04-06T06:48:35.971Z,97224.13
2023-04-06T06:51:04.578Z,97230.75
2023-04-06T06:53:34.305Z,97229.34
2023-04-06T06:56:03.026Z,97233.88
2023-04-06T06:58:32.417Z,97234.19
2023-04-06T07:01:02.107Z,97222.28
2023-04-06T07:03:32.943Z,97227.09
2023-04-06T07:06:01.953Z,97229.22
2023-04-06T07:08:30.479Z,97225.28
2023-04-06T07:11:00.177Z,97224.56
2023-04-06T07:13:28.839Z,97228.44
2023-04-06T07:15:59.599Z,97223.94
2023-04-06T07:18:28.252Z,97231.19
2023-04-06T07:20:57.808Z,97223.81
2023-04-06T07:23:27.236Z,97222.88
2023-04-06T07:25:55.763Z,97224.94
2023-04-06T07:28:25.403Z,97223.25
2023-04-06T07:30:55.314Z,97227.47
2023-04-06T07:33:24.371Z,97222.84
2023-04-06T07:35:53.582Z,97216.50
2023-04-06T07:38:22.068Z,97224.28
2023-04-06T07:40:50.851Z,97226.81
2023-04-06T07:43:19.570Z,97230.00
2023-04-06T07:45:49.567Z,97230.38
2023-04-06T07:48:19.058Z,97238.78
2023-04-06T07:50:51.109Z,97242.72
2023-04-06T07:53:20.031Z,97236.00
2023-04-06T07:55:48.933Z,97241.19
2023-04-06T07:58:17.337Z,97240.50
2023-04-06T08:00:45.650Z,97239.72
2023-04-06T08:03:15.429Z,97252.81
2023-04-06T08:05:44.555Z,97243.63
2023-04-06T08:08:12.865Z,97242.81
2023-04-06T08:10:41.150Z,97249.66
2023-04-06T08:13:10.232Z,97241.16
2023-04-06T08:15:39.035Z,97240.75
2023-04-06T08:18:07.823Z,97242.94
2023-04-06T08:20:38.193Z,97245.69
2023-04-06T08:23:07.800Z,97246.88
2023-04-06T08:25:37.863Z,97251.13
2023-04-06T08:28:07.163Z,97251.78
2023-04-06T08:30:35.528Z,97242.88
2023-04-06T08:33:04.185Z,97243.34
2023-04-06T08:35:33.085Z,97250.25
2023-04-06T08:38:02.994Z,97246.19
2023-04-06T08:40:31.374Z,97242.13
2023-04-06T08:43:09.333Z,97243.47
2023-04-06T08:45:38.133Z,97244.69
2023-04-06T08:48:08.282Z,97237.09
2023-04-06T08:50:40.337Z,97239.69
2023-04-06T08:53:10.716Z,97241.41
2023-04-06T08:55:40.960Z,97239.50
2023-04-06T08:58:10.465Z,97236.34
2023-04-06T09:00:42.077Z,97233.59
2023-04-06T09:03:14.631Z,97239.88
2023-04-06T09:05:43.446Z,97237.28
2023-04-06T09:08:13.393Z,97230.38
2023-04-06T09:10:43.912Z,97236.63
2023-04-06T09:13:12.445Z,97232.50
2023-04-06T09:15:41.142Z,97229.16
2023-04-06T09:18:10.050Z,97239.91
2023-04-06T09:20:38.635Z,97243.97
2023-04-06T09:23:07.004Z,97235.59
2023-04-06T09:25:36.780Z,97235.44
2023-04-06T09:28:08.217Z,97236.38
2023-04-06T09:30:37.559Z,97238.91
2023-04-06T09:33:06.390Z,97233.91
2023-04-06T09:35:34.856Z,97230.53
2023-04-06T09:38:13.843Z,97233.44
2023-04-06T09:41:00.804Z,97231.84
2023-04-06T09:43:32.268Z,97226.28
2023-04-06T09:46:04.842Z,97230.00
2023-04-06T09:48:38.162Z,97230.88
2023-04-06T09:51:09.145Z,97225.38
2023-04-06T09:53:43.952Z,97225.47
2023-04-06T09:56:20.217Z,97224.84
2023-04-06T09:58:54.695Z,97213.31
2023-04-06T10:01:25.091Z,97202.22
2023-04-06T10:04:05.191Z,97215.25
2023-04-06T10:06:37.287Z,97203.09
2023-04-06T10:09:10.425Z,97204.44
2023-04-06T10:11:40.962Z,97202.00
2023-04-06T10:14:12.839Z,97199.69
2023-04-06T10:16:42.025Z,97189.31
2023-04-06T10:19:20.653Z,97188.53
2023-04-06T10:21:56.161Z,97197.56
2023-04-06T10:24:26.094Z,97196.25
2023-04-06T10:27:04.802Z,97185.97
2023-04-06T10:29:48.667Z,97178.56
2023-04-06T10:32:17.172Z,97175.78
2023-04-06T10:34:47.142Z,97178.34
2023-04-06T10:37:17.518Z,97184.19
2023-04-06T10:39:50.345Z,97178.41
2023-04-06T10:42:25.719Z,97171.06
2023-04-06T10:44:54.514Z,97167.03
2023-04-06T10:47:22.836Z,97171.56
2023-04-06T10:49:51.572Z,97168.78
2023-04-06T10:52:20.672Z,97163.56
2023-04-06T10:54:50.539Z,97164.25
2023-04-06T10:57:31.827Z,97153.00
2023-04-06T11:00:00.696Z,97154.75
2023-04-06T11:02:29.072Z,97151.34
2023-04-06T11:04:59.178Z,97162.63
2023-04-06T11:07:30.169Z,97152.59
2023-04-06T11:10:13.435Z,97144.25
2023-04-06T11:12:47.260Z,97142.81
2023-04-06T11:15:16.523Z,97140.44
2023-04-06T11:17:46.832Z,97139.22
2023-04-06T11:20:15.582Z,97136.88
2023-04-06T11:22:54.376Z,97141.38
2023-04-06T11:25:23.262Z,97139.69
2023-04-06T11:27:54.046Z,97129.25
2023-04-06T11:30:22.864Z,97137.00
2023-04-06T11:32:51.483Z,97128.81
2023-04-06T11:35:24.284Z,97125.13
2023-04-06T11:37:53.822Z,97126.41
2023-04-06T11:40:25.699Z,97124.25
2023-04-06T11:42:58.564Z,97117.31
2023-04-06T11:45:28.688Z,97108.31
2023-04-06T11:48:02.424Z,97104.16
2023-04-06T11:50:36.090Z,97104.75
2023-04-06T11:53:05.545Z,97108.44
2023-04-06T11:55:41.163Z,97101.94
2023-04-06T11:58:11.087Z,97091.78
2023-04-06T12:00:39.840Z,97097.00
2023-04-06T12:03:08.340Z,97091.88
2023-04-06T12:05:36.914Z,97089.56
2023-04-06T12:08:05.569Z,97095.63
2023-04-06T12:10:34.239Z,97091.50
2023-04-06T12:13:02.948Z,97097.78
2023-04-06T12:15:33.324Z,97095.66
2023-04-06T12:18:01.927Z,97086.03
2023-04-06T12:20:30.926Z,97080.13
2023-04-06T12:22:59.493Z,97089.19
2023-04-06T12:25:27.988Z,97084.84
2023-04-06T12:27:56.969Z,97079.13
2023-04-06T12:30:26.289Z,97079.38
2023-04-06T12:32:56.468Z,97076.00
2023-04-06T12:35:25.605Z,97072.97
2023-04-06T12:37:53.940Z,97076.25
2023-04-06T12:40:23.450Z,97064.00
2023-04-06T12:42:51.759Z,97068.28
2023-04-06T12:45:20.202Z,97065.41
2023-04-06T12:47:48.897Z,97062.81
2023-04-06T12:50:19.280Z,97057.66
2023-04-06T12:52:47.561Z,97056.00
2023-04-06T12:55:16.264Z,97063.41
2023-04-06T12:57:45.320Z,97056.72
2023-04-06T13:02:47.868Z,97052.41
2023-04-06T13:05:19.870Z,97061.00
2023-04-06T13:07:48.851Z,97046.44
2023-04-06T13:10:17.387Z,97053.78
2023-04-06T13:12:46.080Z,97045.81
2023-04-06T13:15:14.411Z,97047.00
2023-04-06T13:17:43.145Z,97047.13
2023-04-06T13:20:12.454Z,97048.19
2023-04-06T13:22:42.134Z,97047.81
2023-04-06T13:25:11.056Z,97048.41
2023-04-06T13:27:39.444Z,97039.84
2023-04-06T13:30:10.404Z,97039.50
2023-04-06T13:32:39.032Z,97052.91
2023-04-06T13:35:09.335Z,97044.63
2023-04-06T13:37:37.922Z,97040.81
2023-04-06T13:40:09.859Z,97038.56
2023-04-06T13:42:38.936Z,97028.31
2023-04-06T13:45:08.932Z,97021.91
2023-04-06T13:47:37.623Z,97026.03
2023-04-06T13:50:07.683Z,97012.53
2023-04-06T13:52:37.507Z,97006.03
2023-04-06T13:55:08.573Z,97019.63
2023-04-06T13:57:37.913Z,97021.06
2023-04-06T14:00:08.365Z,97023.13
2023-04-06T14:02:37.193Z,97023.84
2023-04-06T14:05:06.221Z,97020.81
2023-04-06T14:07:34.646Z,97017.66
2023-04-06T14:10:04.030Z,97021.13
2023-04-06T14:12:34.053Z,97012.88
2023-04-06T14:15:05.407Z,97007.44
2023-04-06T14:17:34.104Z,97001.41
2023-04-06T14:20:03.396Z,96999.94
2023-04-06T14:22:32.228Z,97002.28
2023-04-06T14:25:00.982Z,96999.59
2023-04-06T14:27:29.337Z,96997.88
2023-04-06T14:30:00.868Z,96996.91
2023-04-06T14:32:29.214Z,96996.78
2023-04-06T14:34:57.730Z,97002.50
2023-04-06T14:37:26.136Z,96999.78
2023-04-06T14:39:54.723Z,96994.78
2023-04-06T14:42:23.057Z,96990.59
2023-04-06T14:44:51.789Z,96987.81
2023-04-06T14:47:22.618Z,96988.34
2023-04-06T14:49:54.323Z,96993.44
2023-04-06T14:52:23.063Z,96982.00
2023-04-06T14:54:51.612Z,96980.22
2023-04-06T14:57:19.984Z,96978.09
2023-04-06T14:59:50.977Z,96975.22
2023-04-06T15:02:19.855Z,96978.63
2023-04-06T15:04:49.867Z,96983.25
2023-04-06T15:07:18.924Z,96966.91
2023-04-06T15:09:47.638Z,96969.81
2023-04-06T15:12:15.972Z,96975.00
2023-04-06T15:14:44.273Z,96972.44
2023-04-06T15:17:12.821Z,96971.66
2023-04-06T15:19:43.298Z,96981.91
2023-04-06T15:22:14.556Z,96972.75
2023-04-06T15:24:43.362Z,96977.63
2023-04-06T15:27:11.804Z,96979.41
2023-04-06T15:29:40.427Z,96974.72
2023-04-06T15:32:09.096Z,96968.41
2023-04-06T15:34:37.854Z,96967.28
2023-04-06T15:37:06.670Z,96965.63
2023-04-06T15:39:37.875Z,96967.78
2023-04-06T15:42:06.445Z,96964.25
2023-04-06T15:44:35.529Z,96961.13
2023-04-06T15:47:04.314Z,96963.22
2023-04-06T15:49:33.325Z,96968.00
2023-04-06T15:52:01.973Z,96963.19
2023-04-06T15:54:30.256Z,96966.03
2023-04-06T15:56:59.932Z,96962.63
2023-04-06T15:59:28.207Z,96957.84
2023-04-06T16:01:56.510Z,96961.16
2023-04-06T16:04:24.967Z,96963.72
2023-04-06T16:06:53.420Z,96959.81
2023-04-06T16:09:21.747Z,96957.31
2023-04-06T16:11:51.134Z,96956.44
2023-04-06T16:14:20.800Z,96959.81
2023-04-06T16:16:50.218Z,96958.56
2023-04-06T16:19:18.655Z,96952.66
2023-04-06T16:21:47.520Z,96958.66
2023-04-06T16:24:15.899Z,96959.28
2023-04-06T16:26:45.003Z,96960.06
2023-04-06T16:29:13.431Z,96960.28
2023-04-06T16:31:46.984Z,96957.78
2023-04-06T16:34:16.077Z,96965.44
2023-04-06T16:36:44.582Z,96961.91
2023-04-06T16:39:13.551Z,96958.66
2023-04-06T16:41:41.872Z,96953.56
2023-04-06T16:44:11.367Z,96954.44
2023-04-06T16:46:41.462Z,96956.19
2023-04-06T16:49:11.472Z,96956.69
2023-04-06T16:51:42.564Z,96954.63
2023-04-06T16:54:11.308Z,96955.22
2023-04-06T16:56:39.706Z,96962.78
2023-04-06T16:59:10.443Z,96961.56
2023-04-06T17:01:39.050Z,96963.06
2023-04-06T17:04:07.775Z,96958.34
2023-04-06T17:06:37.613Z,96960.88
2023-04-06T17:09:05.966Z,96962.50
2023-04-06T17:11:46.194Z,96953.50
2023-04-06T17:14:16.030Z,96953.56
2023-04-06T17:16:44.435Z,96959.03
2023-04-06T17:19:12.739Z,96956.16
2023-04-06T17:21:43.152Z,96958.06
2023-04-06T17:24:12.059Z,96958.88
2023-04-06T17:26:40.547Z,96972.72
2023-04-06T17:29:09.006Z,96957.31
2023-04-06T17:31:37.489Z,96969.34
2023-04-06T17:34:06.992Z,96965.78
2023-04-06T17:36:35.352Z,96969.31
2023-04-06T17:39:05.662Z,96961.84
2023-04-06T17:41:34.824Z,96967.75
2023-04-06T17:44:04.214Z,96969.47
2023-04-06T17:46:33.058Z,96975.38
2023-04-06T17:49:01.498Z,96972.81
2023-04-06T17:51:31.212Z,96976.44
2023-04-06T17:53:59.547Z,96983.19
2023-04-06T17:56:31.854Z,96983.53
2023-04-06T17:59:01.344Z,96993.09
2023-04-06T18:01:31.684Z,96987.94
2023-04-06T18:04:00.602Z,96985.06
2023-04-06T18:06:28.943Z,96986.31
2023-04-06T18:08:57.423Z,96991.75
2023-04-06T18:11:25.851Z,96995.94
2023-04-06T18:13:56.998Z,96994.22
2023-04-06T18:16:26.129Z,96996.69
2023-04-06T18:18:56.371Z,96998.47
2023-04-06T18:21:27.378Z,97001.75
2023-04-06T18:23:56.148Z,97003.38
2023-04-06T18:26:25.503Z,97010.13
2023-04-06T18:28:55.998Z,97010.16
2023-04-06T18:31:24.721Z,97009.53
2023-04-06T18:33:54.510Z,97008.88
2023-04-06T18:36:23.470Z,97009.09
2023-04-06T18:38:52.121Z,97005.09
2023-04-06T18:41:21.589Z,97010.38
2023-04-06T18:43:50.327Z,97012.69
2023-04-06T18:46:21.042Z,97017.91
2023-04-06T18:48:49.614Z,97014.25
2023-04-06T18:51:18.033Z,97017.47
2023-04-06T18:53:46.573Z,97022.38
2023-04-06T18:56:16.716Z,97017.22
2023-04-06T18:58:46.335Z,97022.47
2023-04-06T19:01:24.381Z,97022.59
2023-04-06T19:03:53.685Z,97024.56
2023-04-06T19:06:23.874Z,97026.75
2023-04-06T19:08:52.404Z,97025.06
2023-04-06T19:11:23.276Z,97022.59
2023-04-06T19:13:51.905Z,97026.63
2023-04-06T19:16:20.454Z,97027.00
2023-04-06T19:18:50.377Z,97031.22
2023-04-06T19:21:20.188Z,97039.38
2023-04-06T19:23:50.213Z,97036.44
2023-04-06T19:26:22.072Z,97034.03
2023-04-06T19:28:50.919Z,97032.13
2023-04-06T19:31:21.540Z,97029.97
2023-04-06T19:33:52.046Z,97033.97
2023-04-06T19:36:20.555Z,97029.09
2023-04-06T19:38:48.920Z,97022.53
2023-04-06T19:41:17.340Z,97026.03
2023-04-06T19:43:46.161Z,97027.97
2023-04-06T19:46:15.579Z,97035.06
2023-04-06T19:48:44.656Z,97035.06
2023-04-06T19:51:14.556Z,97031.56
2023-04-06T19:53:43.551Z,97034.13
2023-04-06T19:56:11.873Z,97029.00
2023-04-06T19:58:41.347Z,97035.78
2023-04-06T20:01:09.748Z,97037.63
2023-04-06T20:03:38.538Z,97043.31
2023-04-06T20:06:07.278Z,97035.97
2023-04-06T20:08:37.111Z,97036.25
2023-04-06T20:11:07.596Z,97039.78
2023-04-06T20:13:36.902Z,97035.44
2023-04-06T20:16:05.666Z,97033.84
2023-04-06T20:18:34.270Z,97037.06
2023-04-06T20:21:03.745Z,97038.19
2023-04-06T20:23:34.952Z,97035.47
2023-04-06T20:26:04.783Z,97034.41
2023-04-06T20:28:33.855Z,97029.84
2023-04-06T20:31:02.208Z,97031.50
2023-04-06T20:33:30.566Z,97032.59
2023-04-06T20:35:59.597Z,97039.91
2023-04-06T20:38:32.846Z,97036.38
2023-04-06T20:41:02.610Z,97023.44
2023-04-06T20:43:32.804Z,97029.38
2023-04-06T20:46:02.687Z,97039.59
2023-04-06T20:48:33.672Z,97033.69
2023-04-06T20:51:03.978Z,97033.16
2023-04-06T20:53:32.468Z,97025.84
2023-04-06T20:56:03.700Z,97015.81
2023-04-06T20:58:33.478Z,97019.09
2023-04-06T21:01:01.871Z,97020.97
2023-04-06T21:03:30.471Z,97017.22
2023-04-06T21:06:02.183Z,97023.94
2023-04-06T21:08:30.882Z,97020.09
2023-04-06T21:10:59.226Z,97015.53
2023-04-06T21:13:27.787Z,97016.91
2023-04-06T21:15:57.697Z,97018.00
2023-04-06T21:18:26.215Z,97011.53
2023-04-06T21:20:55.813Z,97013.13
2023-04-06T21:23:24.323Z,97017.19
2023-04-06T21:25:55.420Z,97008.28
2023-04-06T21:28:24.304Z,97003.97
2023-04-06T21:30:53.816Z,97002.63
2023-04-06T21:33:23.993Z,97006.69
2023-04-06T21:35:53.618Z,97002.09
2023-04-06T21:38:22.155Z,96995.38
2023-04-06T21:40:56.712Z,97001.84
2023-04-06T21:43:25.193Z,96998.09
2023-04-06T21:45:53.822Z,96994.56
2023-04-06T21:48:23.653Z,97000.50
2023-04-06T21:50:52.353Z,96999.72
2023-04-06T21:53:21.205Z,97001.03
2023-04-06T21:55:51.081Z,97001.53
2023-04-06T21:58:19.578Z,97011.00
2023-04-06T22:00:47.915Z,97005.03
2023-04-06T22:03:16.613Z,97009.06
2023-04-06T22:05:46.787Z,97004.25
2023-04-06T22:08:25.539Z,96999.91
2023-04-06T22:10:58.730Z,96998.00
2023-04-06T22:13:28.257Z,97002.28
2023-04-06T22:15:57.133Z,97003.09
2023-04-06T22:18:25.804Z,96994.69
2023-04-06T22:20:56.556Z,96996.31
2023-04-06T22:23:25.070Z,97002.00
2023-04-06T22:25:54.479Z,97001.44
2023-04-06T22:28:22.815Z,96995.69
2023-04-06T22:30:51.189Z,96994.81
2023-04-06T22:33:19.638Z,96989.41
2023-04-06T22:35:48.146Z,96989.94
2023-04-06T22:38:17.865Z,97000.53
2023-04-06T22:40:46.605Z,96996.03
2023-04-06T22:43:14.889Z,96993.09
2023-04-06T22:45:43.143Z,96992.06
2023-04-06T22:48:11.969Z,96993.13
2023-04-06T22:50:40.903Z,96987.22
2023-04-06T22:53:09.279Z,96991.81
2023-04-06T22:55:41.252Z,96994.25
2023-04-06T22:58:09.640Z,96992.06
2023-04-06T23:00:38.315Z,96999.63
2023-04-06T23:03:06.798Z,96999.09
2023-04-06T23:05:35.276Z,96997.47
2023-04-06T23:08:03.671Z,96992.66
2023-04-06T23:10:32.025Z,96984.28
2023-04-06T23:13:01.708Z,96990.22
2023-04-06T23:15:30.134Z,96987.00
2023-04-06T23:17:58.518Z,96987.81
2023-04-06T23:20:27.101Z,96990.75
2023-04-06T23:22:56.138Z,96984.56
2023-04-06T23:25:25.025Z,96988.31
2023-04-06T23:27:53.660Z,96985.84
2023-04-06T23:30:23.873Z,96990.94
2023-04-06T23:32:52.843Z,96981.78
2023-04-06T23:35:21.413Z,96983.66
2023-04-06T23:37:49.746Z,96984.25
2023-04-06T23:40:18.426Z,96982.34
2023-04-06T23:42:46.829Z,96976.41
2023-04-06T23:45:15.206Z,96978.31
2023-04-06T23:47:45.953Z,96971.56
2023-04-06T23:50:14.496Z,96972.69
2023-04-06T23:52:42.972Z,96965.41
2023-04-06T23:55:11.908Z,96971.34
2023-04-06T23:57:40.545Z,96966.75
